sensor_id;sensor_type;location;lat;lon;timestamp;P1;durP1;ratioP1;P2;durP2;ratioP2
12253;SDS011;6189;52.526;13.390;2022-10-17T00:00:31;7.03;;;6.33;;
12253;SDS011;6189;52.526;13.390;2022-10-17T00:03:16;8.17;;;6.57;;
12253;SDS011;6189;52.526;13.390;2022-10-17T00:06:04;8.53;;;7.00;;
12253;SDS011;6189;52.526;13.390;2022-10-17T00:08:51;9.83;;;7.43;;
12253;SDS011;6189;52.526;13.390;2022-10-17T00:11:36;9.70;;;7.13;;
12253;SDS011;6189;52.526;13.390;2022-10-17T00:14:21;7.47;;;6.67;;
12253;SDS011;6189;52.526;13.390;2022-10-17T00:17:08;8.07;;;6.80;;
12253;SDS011;6189;52.526;13.390;2022-10-17T00:19:53;10.50;;;6.90;;
12253;SDS011;6189;52.526;13.390;2022-10-17T00:22:39;8.03;;;7.17;;
12253;SDS011;6189;52.526;13.390;2022-10-17T00:25:24;8.10;;;7.00;;
12253;SDS011;6189;52.526;13.390;2022-10-17T00:28:13;7.97;;;7.17;;
12253;SDS011;6189;52.526;13.390;2022-10-17T00:30:59;8.27;;;6.57;;
12253;SDS011;6189;52.526;13.390;2022-10-17T00:33:49;10.33;;;7.17;;
12253;SDS011;6189;52.526;13.390;2022-10-17T00:36:35;8.23;;;6.70;;
12253;SDS011;6189;52.526;13.390;2022-10-17T00:39:20;7.53;;;6.73;;
12253;SDS011;6189;52.526;13.390;2022-10-17T00:42:05;8.00;;;6.17;;
12253;SDS011;6189;52.526;13.390;2022-10-17T00:48:04;9.63;;;6.17;;
12253;SDS011;6189;52.526;13.390;2022-10-17T00:50:54;7.53;;;5.57;;
12253;SDS011;6189;52.526;13.390;2022-10-17T00:53:39;7.77;;;6.23;;
12253;SDS011;6189;52.526;13.390;2022-10-17T00:56:25;9.90;;;6.13;;
12253;SDS011;6189;52.526;13.390;2022-10-17T00:59:11;8.67;;;5.93;;
12253;SDS011;6189;52.526;13.390;2022-10-17T01:01:59;6.57;;;5.70;;
12253;SDS011;6189;52.526;13.390;2022-10-17T01:04:49;6.43;;;5.70;;
12253;SDS011;6189;52.526;13.390;2022-10-17T01:07:39;5.37;;;4.87;;
12253;SDS011;6189;52.526;13.390;2022-10-17T01:10:28;6.37;;;5.43;;
12253;SDS011;6189;52.526;13.390;2022-10-17T01:13:18;7.67;;;4.90;;
12253;SDS011;6189;52.526;13.390;2022-10-17T01:16:10;5.30;;;4.80;;
12253;SDS011;6189;52.526;13.390;2022-10-17T01:19:03;7.13;;;5.53;;
12253;SDS011;6189;52.526;13.390;2022-10-17T01:22:08;5.47;;;4.60;;
12253;SDS011;6189;52.526;13.390;2022-10-17T01:25:05;5.43;;;4.70;;
12253;SDS011;6189;52.526;13.390;2022-10-17T01:28:17;6.53;;;4.90;;
12253;SDS011;6189;52.526;13.390;2022-10-17T01:31:21;6.33;;;4.50;;
12253;SDS011;6189;52.526;13.390;2022-10-17T01:34:11;6.33;;;4.50;;
12253;SDS011;6189;52.526;13.390;2022-10-17T01:37:03;5.03;;;4.50;;
12253;SDS011;6189;52.526;13.390;2022-10-17T01:39:51;4.93;;;4.43;;
12253;SDS011;6189;52.526;13.390;2022-10-17T01:42:40;6.30;;;4.20;;
12253;SDS011;6189;52.526;13.390;2022-10-17T01:45:30;4.70;;;4.27;;
12253;SDS011;6189;52.526;13.390;2022-10-17T01:48:23;6.40;;;4.47;;
12253;SDS011;6189;52.526;13.390;2022-10-17T01:51:14;5.70;;;4.63;;
12253;SDS011;6189;52.526;13.390;2022-10-17T01:54:02;4.97;;;4.30;;
12253;SDS011;6189;52.526;13.390;2022-10-17T01:56:54;4.47;;;4.07;;
12253;SDS011;6189;52.526;13.390;2022-10-17T01:59:43;5.83;;;4.40;;
12253;SDS011;6189;52.526;13.390;2022-10-17T02:02:32;5.17;;;4.03;;
12253;SDS011;6189;52.526;13.390;2022-10-17T02:05:21;4.50;;;4.07;;
12253;SDS011;6189;52.526;13.390;2022-10-17T02:08:10;4.17;;;3.60;;
12253;SDS011;6189;52.526;13.390;2022-10-17T02:10:57;5.63;;;3.90;;
12253;SDS011;6189;52.526;13.390;2022-10-17T02:14:00;4.73;;;4.00;;
12253;SDS011;6189;52.526;13.390;2022-10-17T02:16:59;4.53;;;3.97;;
12253;SDS011;6189;52.526;13.390;2022-10-17T02:19:54;4.50;;;4.10;;
12253;SDS011;6189;52.526;13.390;2022-10-17T02:22:50;4.60;;;4.20;;
12253;SDS011;6189;52.526;13.390;2022-10-17T02:25:41;4.97;;;4.10;;
12253;SDS011;6189;52.526;13.390;2022-10-17T02:28:37;5.03;;;4.53;;
12253;SDS011;6189;52.526;13.390;2022-10-17T02:31:27;4.73;;;4.33;;
12253;SDS011;6189;52.526;13.390;2022-10-17T02:34:15;4.83;;;4.33;;
12253;SDS011;6189;52.526;13.390;2022-10-17T02:37:05;4.37;;;3.97;;
12253;SDS011;6189;52.526;13.390;2022-10-17T02:39:54;4.73;;;4.10;;
12253;SDS011;6189;52.526;13.390;2022-10-17T02:42:43;7.00;;;4.27;;
12253;SDS011;6189;52.526;13.390;2022-10-17T02:45:29;5.70;;;4.30;;
12253;SDS011;6189;52.526;13.390;2022-10-17T02:48:21;4.60;;;4.20;;
12253;SDS011;6189;52.526;13.390;2022-10-17T02:51:11;4.57;;;4.17;;
12253;SDS011;6189;52.526;13.390;2022-10-17T02:54:04;4.27;;;3.93;;
12253;SDS011;6189;52.526;13.390;2022-10-17T02:56:58;4.43;;;4.00;;
12253;SDS011;6189;52.526;13.390;2022-10-17T02:59:50;4.47;;;3.83;;
12253;SDS011;6189;52.526;13.390;2022-10-17T03:02:38;4.93;;;4.40;;
12253;SDS011;6189;52.526;13.390;2022-10-17T03:05:25;4.53;;;4.07;;
12253;SDS011;6189;52.526;13.390;2022-10-17T03:08:12;5.03;;;4.20;;
12253;SDS011;6189;52.526;13.390;2022-10-17T03:10:57;4.33;;;3.93;;
12253;SDS011;6189;52.526;13.390;2022-10-17T03:13:44;4.53;;;4.20;;
12253;SDS011;6189;52.526;13.390;2022-10-17T03:16:29;5.40;;;4.53;;
12253;SDS011;6189;52.526;13.390;2022-10-17T03:19:15;6.13;;;4.30;;
12253;SDS011;6189;52.526;13.390;2022-10-17T03:22:00;6.77;;;5.20;;
12253;SDS011;6189;52.526;13.390;2022-10-17T03:24:46;6.23;;;4.97;;
12253;SDS011;6189;52.526;13.390;2022-10-17T03:27:31;4.80;;;4.40;;
12253;SDS011;6189;52.526;13.390;2022-10-17T03:30:18;4.23;;;3.90;;
12253;SDS011;6189;52.526;13.390;2022-10-17T03:33:04;5.40;;;4.20;;
12253;SDS011;6189;52.526;13.390;2022-10-17T03:35:50;4.97;;;4.57;;
12253;SDS011;6189;52.526;13.390;2022-10-17T03:38:35;4.80;;;4.40;;
12253;SDS011;6189;52.526;13.390;2022-10-17T03:41:22;5.60;;;4.70;;
12253;SDS011;6189;52.526;13.390;2022-10-17T03:44:08;4.33;;;3.93;;
12253;SDS011;6189;52.526;13.390;2022-10-17T03:46:54;5.07;;;4.60;;
12253;SDS011;6189;52.526;13.390;2022-10-17T03:49:41;5.17;;;4.53;;
12253;SDS011;6189;52.526;13.390;2022-10-17T03:52:26;4.90;;;4.40;;
12253;SDS011;6189;52.526;13.390;2022-10-17T03:55:12;6.37;;;4.97;;
12253;SDS011;6189;52.526;13.390;2022-10-17T03:57:57;4.90;;;4.47;;
12253;SDS011;6189;52.526;13.390;2022-10-17T04:00:43;5.40;;;4.53;;
12253;SDS011;6189;52.526;13.390;2022-10-17T04:03:29;5.30;;;4.80;;
12253;SDS011;6189;52.526;13.390;2022-10-17T04:06:15;5.40;;;4.90;;
12253;SDS011;6189;52.526;13.390;2022-10-17T04:09:01;5.30;;;4.60;;
12253;SDS011;6189;52.526;13.390;2022-10-17T04:11:46;5.20;;;4.70;;
12253;SDS011;6189;52.526;13.390;2022-10-17T04:14:32;5.23;;;4.67;;
12253;SDS011;6189;52.526;13.390;2022-10-17T04:17:17;6.33;;;4.33;;
12253;SDS011;6189;52.526;13.390;2022-10-17T04:20:04;5.27;;;4.77;;
12253;SDS011;6189;52.526;13.390;2022-10-17T04:22:51;6.20;;;4.27;;
12253;SDS011;6189;52.526;13.390;2022-10-17T04:25:36;7.83;;;5.50;;
12253;SDS011;6189;52.526;13.390;2022-10-17T04:28:22;5.10;;;4.60;;
12253;SDS011;6189;52.526;13.390;2022-10-17T04:31:09;5.57;;;4.30;;
12253;SDS011;6189;52.526;13.390;2022-10-17T04:33:56;6.07;;;4.43;;
12253;SDS011;6189;52.526;13.390;2022-10-17T04:36:43;5.00;;;4.60;;
12253;SDS011;6189;52.526;13.390;2022-10-17T04:39:29;5.47;;;5.07;;
12253;SDS011;6189;52.526;13.390;2022-10-17T04:42:15;6.87;;;5.00;;
12253;SDS011;6189;52.526;13.390;2022-10-17T04:45:00;6.67;;;4.77;;
12253;SDS011;6189;52.526;13.390;2022-10-17T04:47:46;5.30;;;4.27;;
12253;SDS011;6189;52.526;13.390;2022-10-17T04:50:31;5.33;;;4.83;;
12253;SDS011;6189;52.526;13.390;2022-10-17T04:53:18;5.97;;;4.80;;
12253;SDS011;6189;52.526;13.390;2022-10-17T04:56:07;6.90;;;5.20;;
12253;SDS011;6189;52.526;13.390;2022-10-17T04:58:54;5.27;;;4.77;;
12253;SDS011;6189;52.526;13.390;2022-10-17T05:01:39;5.63;;;4.97;;
12253;SDS011;6189;52.526;13.390;2022-10-17T05:04:24;5.60;;;5.10;;
12253;SDS011;6189;52.526;13.390;2022-10-17T05:07:10;5.20;;;4.60;;
12253;SDS011;6189;52.526;13.390;2022-10-17T05:09:57;5.43;;;4.93;;
12253;SDS011;6189;52.526;13.390;2022-10-17T05:12:42;6.27;;;4.60;;
12253;SDS011;6189;52.526;13.390;2022-10-17T05:15:28;6.57;;;4.50;;
12253;SDS011;6189;52.526;13.390;2022-10-17T05:18:13;9.37;;;5.40;;
12253;SDS011;6189;52.526;13.390;2022-10-17T05:20:59;5.30;;;4.87;;
12253;SDS011;6189;52.526;13.390;2022-10-17T05:23:46;7.53;;;5.20;;
12253;SDS011;6189;52.526;13.390;2022-10-17T05:26:33;5.60;;;5.00;;
12253;SDS011;6189;52.526;13.390;2022-10-17T05:29:19;8.43;;;5.73;;
12253;SDS011;6189;52.526;13.390;2022-10-17T05:32:04;5.80;;;4.80;;
12253;SDS011;6189;52.526;13.390;2022-10-17T05:34:50;5.33;;;4.83;;
12253;SDS011;6189;52.526;13.390;2022-10-17T05:37:35;6.53;;;5.20;;
12253;SDS011;6189;52.526;13.390;2022-10-17T05:40:21;6.17;;;4.97;;
12253;SDS011;6189;52.526;13.390;2022-10-17T05:43:07;5.30;;;4.90;;
12253;SDS011;6189;52.526;13.390;2022-10-17T05:45:53;5.63;;;5.13;;
12253;SDS011;6189;52.526;13.390;2022-10-17T05:48:39;6.23;;;5.27;;
12253;SDS011;6189;52.526;13.390;2022-10-17T05:51:24;8.53;;;5.30;;
12253;SDS011;6189;52.526;13.390;2022-10-17T05:54:10;6.60;;;5.73;;
12253;SDS011;6189;52.526;13.390;2022-10-17T05:56:55;7.30;;;5.73;;
12253;SDS011;6189;52.526;13.390;2022-10-17T05:59:42;6.50;;;5.83;;
12253;SDS011;6189;52.526;13.390;2022-10-17T06:02:28;5.87;;;5.37;;
12253;SDS011;6189;52.526;13.390;2022-10-17T06:05:13;8.20;;;5.97;;
12253;SDS011;6189;52.526;13.390;2022-10-17T06:07:59;7.37;;;5.47;;
12253;SDS011;6189;52.526;13.390;2022-10-17T06:10:46;5.87;;;5.37;;
12253;SDS011;6189;52.526;13.390;2022-10-17T06:13:31;5.57;;;5.00;;
12253;SDS011;6189;52.526;13.390;2022-10-17T06:16:18;8.27;;;5.67;;
12253;SDS011;6189;52.526;13.390;2022-10-17T06:19:03;9.60;;;5.50;;
12253;SDS011;6189;52.526;13.390;2022-10-17T06:21:49;10.40;;;5.67;;
12253;SDS011;6189;52.526;13.390;2022-10-17T06:24:34;7.83;;;5.87;;
12253;SDS011;6189;52.526;13.390;2022-10-17T06:27:20;10.67;;;6.17;;
12253;SDS011;6189;52.526;13.390;2022-10-17T06:30:05;8.80;;;6.13;;
12253;SDS011;6189;52.526;13.390;2022-10-17T06:32:53;11.23;;;6.00;;
12253;SDS011;6189;52.526;13.390;2022-10-17T06:35:38;10.17;;;6.00;;
12253;SDS011;6189;52.526;13.390;2022-10-17T06:38:23;8.70;;;5.43;;
12253;SDS011;6189;52.526;13.390;2022-10-17T06:41:10;8.73;;;6.23;;
12253;SDS011;6189;52.526;13.390;2022-10-17T06:43:57;7.87;;;5.90;;
12253;SDS011;6189;52.526;13.390;2022-10-17T06:46:42;7.83;;;5.87;;
12253;SDS011;6189;52.526;13.390;2022-10-17T06:49:29;11.07;;;6.27;;
12253;SDS011;6189;52.526;13.390;2022-10-17T06:52:16;10.13;;;6.07;;
12253;SDS011;6189;52.526;13.390;2022-10-17T06:55:02;9.77;;;7.10;;
12253;SDS011;6189;52.526;13.390;2022-10-17T06:57:48;7.73;;;6.33;;
12253;SDS011;6189;52.526;13.390;2022-10-17T07:00:35;10.77;;;6.73;;
12253;SDS011;6189;52.526;13.390;2022-10-17T07:03:20;7.60;;;6.90;;
12253;SDS011;6189;52.526;13.390;2022-10-17T07:06:07;17.67;;;7.27;;
12253;SDS011;6189;52.526;13.390;2022-10-17T07:08:53;9.67;;;7.10;;
12253;SDS011;6189;52.526;13.390;2022-10-17T07:11:39;9.23;;;6.87;;
12253;SDS011;6189;52.526;13.390;2022-10-17T07:14:24;8.23;;;5.67;;
12253;SDS011;6189;52.526;13.390;2022-10-17T07:17:14;7.30;;;6.47;;
12253;SDS011;6189;52.526;13.390;2022-10-17T07:19:59;7.40;;;5.80;;
12253;SDS011;6189;52.526;13.390;2022-10-17T07:22:46;8.03;;;6.63;;
12253;SDS011;6189;52.526;13.390;2022-10-17T07:25:32;9.50;;;6.00;;
12253;SDS011;6189;52.526;13.390;2022-10-17T07:28:18;7.67;;;5.77;;
12253;SDS011;6189;52.526;13.390;2022-10-17T07:31:04;11.30;;;5.73;;
12253;SDS011;6189;52.526;13.390;2022-10-17T07:33:50;13.53;;;5.77;;
12253;SDS011;6189;52.526;13.390;2022-10-17T07:36:36;11.47;;;5.80;;
12253;SDS011;6189;52.526;13.390;2022-10-17T07:39:22;7.83;;;5.40;;
12253;SDS011;6189;52.526;13.390;2022-10-17T07:42:08;7.67;;;5.63;;
12253;SDS011;6189;52.526;13.390;2022-10-17T07:44:54;6.50;;;5.60;;
12253;SDS011;6189;52.526;13.390;2022-10-17T07:47:39;6.50;;;5.20;;
12253;SDS011;6189;52.526;13.390;2022-10-17T07:50:25;7.60;;;5.00;;
12253;SDS011;6189;52.526;13.390;2022-10-17T07:53:11;8.77;;;5.50;;
12253;SDS011;6189;52.526;13.390;2022-10-17T07:56:01;10.00;;;5.60;;
12253;SDS011;6189;52.526;13.390;2022-10-17T07:58:49;9.53;;;5.90;;
12253;SDS011;6189;52.526;13.390;2022-10-17T08:01:35;10.27;;;5.60;;
12253;SDS011;6189;52.526;13.390;2022-10-17T08:04:21;9.90;;;5.60;;
12253;SDS011;6189;52.526;13.390;2022-10-17T08:07:06;8.90;;;5.33;;
12253;SDS011;6189;52.526;13.390;2022-10-17T08:09:52;9.27;;;4.93;;
12253;SDS011;6189;52.526;13.390;2022-10-17T08:12:38;5.47;;;4.97;;
12253;SDS011;6189;52.526;13.390;2022-10-17T08:15:24;6.53;;;4.70;;
12253;SDS011;6189;52.526;13.390;2022-10-17T08:18:10;7.13;;;4.97;;
12253;SDS011;6189;52.526;13.390;2022-10-17T08:20:58;11.40;;;5.03;;
12253;SDS011;6189;52.526;13.390;2022-10-17T08:23:44;6.80;;;4.87;;
12253;SDS011;6189;52.526;13.390;2022-10-17T08:26:30;7.13;;;4.80;;
12253;SDS011;6189;52.526;13.390;2022-10-17T08:29:16;6.80;;;5.00;;
12253;SDS011;6189;52.526;13.390;2022-10-17T08:32:02;9.77;;;5.13;;
12253;SDS011;6189;52.526;13.390;2022-10-17T08:34:48;8.30;;;5.33;;
12253;SDS011;6189;52.526;13.390;2022-10-17T08:37:33;6.80;;;4.53;;
12253;SDS011;6189;52.526;13.390;2022-10-17T08:40:19;8.13;;;4.80;;
12253;SDS011;6189;52.526;13.390;2022-10-17T08:43:12;5.43;;;4.50;;
12253;SDS011;6189;52.526;13.390;2022-10-17T08:46:07;6.23;;;4.00;;
12253;SDS011;6189;52.526;13.390;2022-10-17T08:48:53;8.83;;;4.60;;
12253;SDS011;6189;52.526;13.390;2022-10-17T08:51:41;6.70;;;4.33;;
12253;SDS011;6189;52.526;13.390;2022-10-17T08:54:35;6.63;;;4.40;;
12253;SDS011;6189;52.526;13.390;2022-10-17T08:57:25;6.40;;;4.07;;
12253;SDS011;6189;52.526;13.390;2022-10-17T09:00:12;6.03;;;4.03;;
12253;SDS011;6189;52.526;13.390;2022-10-17T09:03:07;10.10;;;4.43;;
12253;SDS011;6189;52.526;13.390;2022-10-17T09:06:02;7.30;;;5.10;;
12253;SDS011;6189;52.526;13.390;2022-10-17T09:12:11;11.13;;;4.83;;
12253;SDS011;6189;52.526;13.390;2022-10-17T09:15:22;9.20;;;4.57;;
12253;SDS011;6189;52.526;13.390;2022-10-17T09:18:21;9.00;;;4.77;;
12253;SDS011;6189;52.526;13.390;2022-10-17T09:21:14;12.43;;;5.13;;
12253;SDS011;6189;52.526;13.390;2022-10-17T09:24:05;12.43;;;4.67;;
12253;SDS011;6189;52.526;13.390;2022-10-17T09:26:57;9.73;;;4.77;;
12253;SDS011;6189;52.526;13.390;2022-10-17T09:29:43;6.23;;;4.30;;
12253;SDS011;6189;52.526;13.390;2022-10-17T09:32:32;11.77;;;4.57;;
12253;SDS011;6189;52.526;13.390;2022-10-17T09:35:19;5.10;;;4.10;;
12253;SDS011;6189;52.526;13.390;2022-10-17T09:38:05;7.10;;;3.60;;
12253;SDS011;6189;52.526;13.390;2022-10-17T09:40:53;6.67;;;4.10;;
12253;SDS011;6189;52.526;13.390;2022-10-17T09:43:40;6.70;;;3.93;;
12253;SDS011;6189;52.526;13.390;2022-10-17T09:46:26;8.07;;;4.37;;
12253;SDS011;6189;52.526;13.390;2022-10-17T09:49:17;9.77;;;3.60;;
12253;SDS011;6189;52.526;13.390;2022-10-17T09:52:10;7.90;;;4.30;;
12253;SDS011;6189;52.526;13.390;2022-10-17T09:54:59;7.63;;;4.53;;
12253;SDS011;6189;52.526;13.390;2022-10-17T09:57:56;7.20;;;3.87;;
12253;SDS011;6189;52.526;13.390;2022-10-17T10:00:43;8.20;;;4.23;;
12253;SDS011;6189;52.526;13.390;2022-10-17T10:03:31;5.03;;;3.77;;
12253;SDS011;6189;52.526;13.390;2022-10-17T10:06:17;5.63;;;4.17;;
12253;SDS011;6189;52.526;13.390;2022-10-17T10:09:05;6.30;;;3.50;;
12253;SDS011;6189;52.526;13.390;2022-10-17T10:12:05;8.13;;;3.60;;
12253;SDS011;6189;52.526;13.390;2022-10-17T10:15:01;8.33;;;4.20;;
12253;SDS011;6189;52.526;13.390;2022-10-17T10:18:25;6.80;;;3.70;;
12253;SDS011;6189;52.526;13.390;2022-10-17T10:21:13;4.40;;;3.40;;
12253;SDS011;6189;52.526;13.390;2022-10-17T10:24:11;9.10;;;3.87;;
12253;SDS011;6189;52.526;13.390;2022-10-17T10:26:58;5.83;;;3.80;;
12253;SDS011;6189;52.526;13.390;2022-10-17T10:29:47;7.57;;;4.13;;
12253;SDS011;6189;52.526;13.390;2022-10-17T10:32:35;6.70;;;4.23;;
12253;SDS011;6189;52.526;13.390;2022-10-17T10:35:22;6.77;;;3.50;;
12253;SDS011;6189;52.526;13.390;2022-10-17T10:38:17;6.27;;;3.80;;
12253;SDS011;6189;52.526;13.390;2022-10-17T10:41:06;4.20;;;3.43;;
12253;SDS011;6189;52.526;13.390;2022-10-17T10:43:53;8.03;;;3.80;;
12253;SDS011;6189;52.526;13.390;2022-10-17T10:46:39;6.67;;;3.87;;
12253;SDS011;6189;52.526;13.390;2022-10-17T10:49:27;5.47;;;4.30;;
12253;SDS011;6189;52.526;13.390;2022-10-17T10:52:17;5.73;;;3.10;;
12253;SDS011;6189;52.526;13.390;2022-10-17T10:55:14;4.60;;;4.03;;
12253;SDS011;6189;52.526;13.390;2022-10-17T10:58:08;3.43;;;3.13;;
12253;SDS011;6189;52.526;13.390;2022-10-17T11:01:11;7.83;;;4.00;;
12253;SDS011;6189;52.526;13.390;2022-10-17T11:04:09;10.77;;;4.00;;
12253;SDS011;6189;52.526;13.390;2022-10-17T11:07:06;4.43;;;3.50;;
12253;SDS011;6189;52.526;13.390;2022-10-17T11:09:58;4.20;;;3.40;;
12253;SDS011;6189;52.526;13.390;2022-10-17T11:12:49;7.97;;;3.50;;
12253;SDS011;6189;52.526;13.390;2022-10-17T11:15:43;4.17;;;3.17;;
12253;SDS011;6189;52.526;13.390;2022-10-17T11:18:32;6.73;;;3.33;;
12253;SDS011;6189;52.526;13.390;2022-10-17T11:21:25;5.83;;;3.73;;
12253;SDS011;6189;52.526;13.390;2022-10-17T11:24:18;4.50;;;3.43;;
12253;SDS011;6189;52.526;13.390;2022-10-17T11:27:07;6.53;;;3.57;;
12253;SDS011;6189;52.526;13.390;2022-10-17T11:29:53;7.73;;;3.40;;
12253;SDS011;6189;52.526;13.390;2022-10-17T11:32:41;6.10;;;3.67;;
12253;SDS011;6189;52.526;13.390;2022-10-17T11:35:31;6.53;;;3.40;;
12253;SDS011;6189;52.526;13.390;2022-10-17T11:38:24;6.33;;;3.37;;
12253;SDS011;6189;52.526;13.390;2022-10-17T11:41:14;5.40;;;3.07;;
12253;SDS011;6189;52.526;13.390;2022-10-17T11:44:10;11.70;;;3.73;;
12253;SDS011;6189;52.526;13.390;2022-10-17T11:47:03;8.50;;;4.03;;
12253;SDS011;6189;52.526;13.390;2022-10-17T11:49:58;13.33;;;4.17;;
12253;SDS011;6189;52.526;13.390;2022-10-17T11:52:47;8.40;;;3.90;;
12253;SDS011;6189;52.526;13.390;2022-10-17T11:55:37;6.20;;;3.67;;
12253;SDS011;6189;52.526;13.390;2022-10-17T11:58:27;7.33;;;3.60;;
12253;SDS011;6189;52.526;13.390;2022-10-17T12:01:21;6.23;;;3.70;;
12253;SDS011;6189;52.526;13.390;2022-10-17T12:04:19;6.27;;;3.60;;
12253;SDS011;6189;52.526;13.390;2022-10-17T12:07:13;7.43;;;3.60;;
12253;SDS011;6189;52.526;13.390;2022-10-17T12:10:04;8.03;;;3.97;;
12253;SDS011;6189;52.526;13.390;2022-10-17T12:19:34;5.60;;;3.60;;
12253;SDS011;6189;52.526;13.390;2022-10-17T12:22:22;9.40;;;4.07;;
12253;SDS011;6189;52.526;13.390;2022-10-17T12:25:15;4.40;;;3.70;;
12253;SDS011;6189;52.526;13.390;2022-10-17T12:28:13;6.27;;;3.63;;
12253;SDS011;6189;52.526;13.390;2022-10-17T12:31:02;6.27;;;3.83;;
12253;SDS011;6189;52.526;13.390;2022-10-17T12:33:50;7.30;;;4.03;;
12253;SDS011;6189;52.526;13.390;2022-10-17T12:36:37;6.03;;;3.70;;
12253;SDS011;6189;52.526;13.390;2022-10-17T12:42:47;6.00;;;3.40;;
12253;SDS011;6189;52.526;13.390;2022-10-17T12:45:44;6.13;;;3.50;;
12253;SDS011;6189;52.526;13.390;2022-10-17T12:55:09;7.93;;;3.80;;
12253;SDS011;6189;52.526;13.390;2022-10-17T12:57:57;8.10;;;3.80;;
12253;SDS011;6189;52.526;13.390;2022-10-17T13:00:47;4.13;;;3.40;;
12253;SDS011;6189;52.526;13.390;2022-10-17T13:03:39;6.37;;;3.33;;
12253;SDS011;6189;52.526;13.390;2022-10-17T13:06:28;5.03;;;3.20;;
12253;SDS011;6189;52.526;13.390;2022-10-17T13:09:24;8.40;;;4.43;;
12253;SDS011;6189;52.526;13.390;2022-10-17T13:12:14;5.87;;;3.53;;
12253;SDS011;6189;52.526;13.390;2022-10-17T13:15:04;8.83;;;3.37;;
12253;SDS011;6189;52.526;13.390;2022-10-17T13:17:55;9.27;;;3.97;;
12253;SDS011;6189;52.526;13.390;2022-10-17T13:20:41;10.93;;;3.83;;
12253;SDS011;6189;52.526;13.390;2022-10-17T13:23:30;9.17;;;3.70;;
12253;SDS011;6189;52.526;13.390;2022-10-17T13:26:18;10.13;;;4.20;;
12253;SDS011;6189;52.526;13.390;2022-10-17T13:29:09;5.50;;;3.50;;
12253;SDS011;6189;52.526;13.390;2022-10-17T13:31:57;8.40;;;4.43;;
12253;SDS011;6189;52.526;13.390;2022-10-17T13:34:44;5.27;;;3.80;;
12253;SDS011;6189;52.526;13.390;2022-10-17T13:37:29;7.37;;;3.60;;
12253;SDS011;6189;52.526;13.390;2022-10-17T13:40:15;7.03;;;3.73;;
12253;SDS011;6189;52.526;13.390;2022-10-17T13:43:02;7.77;;;4.13;;
12253;SDS011;6189;52.526;13.390;2022-10-17T13:45:50;8.77;;;3.80;;
12253;SDS011;6189;52.526;13.390;2022-10-17T13:48:37;7.70;;;3.53;;
12253;SDS011;6189;52.526;13.390;2022-10-17T13:51:22;5.70;;;3.53;;
12253;SDS011;6189;52.526;13.390;2022-10-17T13:54:16;8.73;;;4.20;;
12253;SDS011;6189;52.526;13.390;2022-10-17T13:57:16;12.13;;;3.90;;
12253;SDS011;6189;52.526;13.390;2022-10-17T14:00:06;7.33;;;3.73;;
12253;SDS011;6189;52.526;13.390;2022-10-17T14:03:00;6.47;;;3.50;;
12253;SDS011;6189;52.526;13.390;2022-10-17T14:05:58;5.70;;;3.50;;
12253;SDS011;6189;52.526;13.390;2022-10-17T14:08:53;6.87;;;3.53;;
12253;SDS011;6189;52.526;13.390;2022-10-17T14:11:42;6.37;;;3.70;;
12253;SDS011;6189;52.526;13.390;2022-10-17T14:14:29;5.63;;;3.70;;
12253;SDS011;6189;52.526;13.390;2022-10-17T14:17:16;7.03;;;3.37;;
12253;SDS011;6189;52.526;13.390;2022-10-17T14:20:15;8.77;;;3.57;;
12253;SDS011;6189;52.526;13.390;2022-10-17T14:23:02;8.80;;;3.40;;
12253;SDS011;6189;52.526;13.390;2022-10-17T14:25:47;3.50;;;3.20;;
12253;SDS011;6189;52.526;13.390;2022-10-17T14:28:33;5.23;;;3.10;;
12253;SDS011;6189;52.526;13.390;2022-10-17T14:31:23;6.13;;;3.33;;
12253;SDS011;6189;52.526;13.390;2022-10-17T14:34:19;7.50;;;3.30;;
12253;SDS011;6189;52.526;13.390;2022-10-17T14:37:10;7.03;;;3.03;;
12253;SDS011;6189;52.526;13.390;2022-10-17T14:40:05;8.23;;;3.57;;
12253;SDS011;6189;52.526;13.390;2022-10-17T14:42:52;8.63;;;3.27;;
12253;SDS011;6189;52.526;13.390;2022-10-17T14:45:39;8.40;;;3.17;;
12253;SDS011;6189;52.526;13.390;2022-10-17T14:48:24;6.93;;;3.00;;
12253;SDS011;6189;52.526;13.390;2022-10-17T14:51:13;6.10;;;3.43;;
12253;SDS011;6189;52.526;13.390;2022-10-17T14:54:02;3.73;;;3.37;;
12253;SDS011;6189;52.526;13.390;2022-10-17T14:56:50;9.40;;;3.90;;
12253;SDS011;6189;52.526;13.390;2022-10-17T14:59:38;4.37;;;3.40;;
12253;SDS011;6189;52.526;13.390;2022-10-17T15:02:24;9.17;;;3.37;;
12253;SDS011;6189;52.526;13.390;2022-10-17T15:05:10;5.73;;;3.30;;
12253;SDS011;6189;52.526;13.390;2022-10-17T15:07:56;6.40;;;3.40;;
12253;SDS011;6189;52.526;13.390;2022-10-17T15:10:44;6.80;;;3.77;;
12253;SDS011;6189;52.526;13.390;2022-10-17T15:13:30;4.90;;;3.30;;
12253;SDS011;6189;52.526;13.390;2022-10-17T15:16:17;7.37;;;3.30;;
12253;SDS011;6189;52.526;13.390;2022-10-17T15:19:04;7.77;;;3.40;;
12253;SDS011;6189;52.526;13.390;2022-10-17T15:21:49;4.63;;;3.57;;
12253;SDS011;6189;52.526;13.390;2022-10-17T15:24:35;5.23;;;3.60;;
12253;SDS011;6189;52.526;13.390;2022-10-17T15:27:22;5.27;;;4.00;;
12253;SDS011;6189;52.526;13.390;2022-10-17T15:30:14;6.00;;;3.57;;
12253;SDS011;6189;52.526;13.390;2022-10-17T15:33:03;6.43;;;3.60;;
12253;SDS011;6189;52.526;13.390;2022-10-17T15:35:48;9.27;;;3.97;;
12253;SDS011;6189;52.526;13.390;2022-10-17T15:38:35;7.10;;;3.37;;
12253;SDS011;6189;52.526;13.390;2022-10-17T15:41:21;6.83;;;3.77;;
12253;SDS011;6189;52.526;13.390;2022-10-17T15:44:09;7.17;;;4.23;;
12253;SDS011;6189;52.526;13.390;2022-10-17T15:46:55;7.47;;;3.70;;
12253;SDS011;6189;52.526;13.390;2022-10-17T15:49:40;8.07;;;4.17;;
12253;SDS011;6189;52.526;13.390;2022-10-17T15:52:26;7.47;;;3.50;;
12253;SDS011;6189;52.526;13.390;2022-10-17T15:55:12;9.87;;;3.83;;
12253;SDS011;6189;52.526;13.390;2022-10-17T15:57:57;6.23;;;3.87;;
12253;SDS011;6189;52.526;13.390;2022-10-17T16:00:44;3.83;;;3.40;;
12253;SDS011;6189;52.526;13.390;2022-10-17T16:03:30;6.20;;;3.80;;
12253;SDS011;6189;52.526;13.390;2022-10-17T16:06:16;5.97;;;4.00;;
12253;SDS011;6189;52.526;13.390;2022-10-17T16:09:02;5.53;;;3.73;;
12253;SDS011;6189;52.526;13.390;2022-10-17T16:11:48;7.80;;;4.40;;
12253;SDS011;6189;52.526;13.390;2022-10-17T16:14:33;8.00;;;4.57;;
12253;SDS011;6189;52.526;13.390;2022-10-17T16:17:20;7.53;;;4.43;;
12253;SDS011;6189;52.526;13.390;2022-10-17T16:20:05;5.33;;;4.00;;
12253;SDS011;6189;52.526;13.390;2022-10-17T16:22:52;8.80;;;4.73;;
12253;SDS011;6189;52.526;13.390;2022-10-17T16:25:42;5.57;;;3.80;;
12253;SDS011;6189;52.526;13.390;2022-10-17T16:28:28;4.63;;;3.43;;
12253;SDS011;6189;52.526;13.390;2022-10-17T16:31:17;9.20;;;4.10;;
12253;SDS011;6189;52.526;13.390;2022-10-17T16:34:06;7.30;;;4.03;;
12253;SDS011;6189;52.526;13.390;2022-10-17T16:36:52;8.47;;;3.90;;
12253;SDS011;6189;52.526;13.390;2022-10-17T16:39:37;5.77;;;4.10;;
12253;SDS011;6189;52.526;13.390;2022-10-17T16:42:23;5.30;;;3.60;;
12253;SDS011;6189;52.526;13.390;2022-10-17T16:45:08;5.63;;;3.43;;
12253;SDS011;6189;52.526;13.390;2022-10-17T16:47:59;5.90;;;3.83;;
12253;SDS011;6189;52.526;13.390;2022-10-17T16:50:45;7.90;;;4.20;;
12253;SDS011;6189;52.526;13.390;2022-10-17T16:53:31;9.70;;;4.10;;
12253;SDS011;6189;52.526;13.390;2022-10-17T16:56:17;9.30;;;4.07;;
12253;SDS011;6189;52.526;13.390;2022-10-17T16:59:03;6.37;;;3.83;;
12253;SDS011;6189;52.526;13.390;2022-10-17T17:01:48;7.33;;;4.20;;
12253;SDS011;6189;52.526;13.390;2022-10-17T17:04:34;5.70;;;3.27;;
12253;SDS011;6189;52.526;13.390;2022-10-17T17:07:21;5.77;;;3.80;;
12253;SDS011;6189;52.526;13.390;2022-10-17T17:10:07;7.93;;;3.57;;
12253;SDS011;6189;52.526;13.390;2022-10-17T17:12:53;7.63;;;3.70;;
12253;SDS011;6189;52.526;13.390;2022-10-17T17:15:38;5.53;;;3.93;;